Time;durP1;ratioP1;P1;durP2;ratioP2;P2;SDS_P1;SDS_P2;PMS_P1;PMS_P2;Temp;Humidity;BMP_temperature;BMP_pressure;BME280_temperature;BME280_humidity;BME280_pressure;Samples;Min_cycle;Max_cycle;Signal;HPM_P1;HPM_P2
2022/03/12 00:01:45;;;;;;;9.88;2.92;;;3.30;49.80;;;;;;5077796;28;20028;-68
2022/03/12 00:04:13;;;;;;;7.85;3.30;;;3.30;49.70;;;;;;5077136;28;20021;-68
2022/03/12 00:06:41;;;;;;;5.63;2.85;;;3.30;49.90;;;;;;5077714;28;20412;-68
2022/03/12 00:09:08;;;;;;;6.20;3.15;;;3.20;49.80;;;;;;5076762;28;20144;-68
2022/03/12 00:11:36;;;;;;;5.35;2.08;;;3.30;49.50;;;;;;5076958;28;20021;-68
2022/03/12 00:14:06;;;;;;;5.30;2.30;;;3.20;49.50;;;;;;5076762;28;20017;-68
2022/03/12 00:16:34;;;;;;;4.82;2.72;;;3.20;49.60;;;;;;5076871;28;20325;-68
2022/03/12 00:19:04;;;;;;;6.20;2.60;;;3.20;49.50;;;;;;5076594;28;20075;-68
2022/03/12 00:21:42;;;;;;;6.13;2.38;;;3.20;49.60;;;;;;5076706;28;20074;-68
2022/03/12 00:24:15;;;;;;;5.50;2.75;;;3.20;49.60;;;;;;5076565;28;20024;-68
2022/03/12 00:26:46;;;;;;;6.20;2.60;;;3.10;49.90;;;;;;5059663;28;20020;-68
2022/03/12 00:29:15;;;;;;;12.73;6.22;;;3.10;50.00;;;;;;5077406;28;20371;-68
2022/03/12 00:31:50;;;;;;;5.72;2.50;;;3.10;49.60;;;;;;5059551;28;20371;-68
2022/03/12 00:34:18;;;;;;;5.50;2.40;;;3.10;49.70;;;;;;5059567;28;20048;-68
2022/03/12 00:36:46;;;;;;;6.93;3.28;;;3.00;49.60;;;;;;5078115;28;20020;-68
2022/03/12 00:39:15;;;;;;;9.15;2.35;;;3.00;49.50;;;;;;5059568;28;20021;-68
2022/03/12 00:41:42;;;;;;;6.00;2.30;;;3.00;49.20;;;;;;5077917;28;20016;-68
2022/03/12 00:44:17;;;;;;;9.00;2.47;;;3.10;48.80;;;;;;5059455;28;20047;-68
2022/03/12 00:46:45;;;;;;;6.03;2.67;;;3.10;48.90;;;;;;5076717;28;20020;-68
2022/03/12 00:49:13;;;;;;;6.80;2.47;;;3.10;48.90;;;;;;5076863;28;20147;-68
2022/03/12 00:51:42;;;;;;;5.47;2.67;;;3.10;48.80;;;;;;5077046;28;20017;-68
2022/03/12 00:54:10;;;;;;;5.10;2.35;;;3.10;48.70;;;;;;5081000;28;20031;-68
2022/03/12 00:56:39;;;;;;;5.85;2.53;;;3.10;48.80;;;;;;5080876;28;20024;-68
2022/03/12 00:59:08;;;;;;;6.45;2.30;;;3.10;49.00;;;;;;5080341;28;20021;-68
2022/03/12 01:01:35;;;;;;;7.82;2.83;;;3.10;48.80;;;;;;5080839;28;20027;-68
2022/03/12 01:04:03;;;;;;;7.95;2.70;;;3.10;48.70;;;;;;5080827;28;20096;-68
2022/03/12 01:06:33;;;;;;;6.15;2.58;;;3.10;48.40;;;;;;5080904;28;20020;-68
2022/03/12 01:09:01;;;;;;;8.02;2.85;;;3.10;48.30;;;;;;5080851;28;20078;-68
2022/03/12 01:11:29;;;;;;;9.27;2.90;;;3.10;48.30;;;;;;5081009;28;20020;-68
2022/03/12 01:13:57;;;;;;;5.47;2.30;;;3.10;48.40;;;;;;5081012;28;20020;-68
2022/03/12 01:16:24;;;;;;;7.05;2.55;;;3.10;48.20;;;;;;5080741;28;20048;-68
2022/03/12 01:18:51;;;;;;;5.75;2.42;;;3.00;48.40;;;;;;5080894;28;20044;-68
2022/03/12 01:21:20;;;;;;;5.72;2.63;;;3.00;48.40;;;;;;5081382;28;20070;-68
2022/03/12 01:23:48;;;;;;;4.95;2.35;;;2.90;48.50;;;;;;5080848;28;20078;-68
2022/03/12 01:26:18;;;;;;;6.45;3.38;;;2.90;48.10;;;;;;5080929;28;20366;-68
2022/03/12 01:28:45;;;;;;;6.43;2.75;;;3.00;48.20;;;;;;5079689;28;20029;-68
2022/03/12 01:31:14;;;;;;;7.65;3.00;;;3.00;48.00;;;;;;5079860;28;20094;-68
2022/03/12 01:33:41;;;;;;;5.70;2.20;;;3.10;48.30;;;;;;5079610;28;20325;-68
2022/03/12 01:36:09;;;;;;;11.75;2.65;;;3.00;48.10;;;;;;5079669;28;20391;-68
2022/03/12 01:38:46;;;;;;;6.70;2.92;;;3.00;48.20;;;;;;5079626;28;20052;-68
2022/03/12 01:41:15;;;;;;;6.65;2.70;;;3.00;48.30;;;;;;5080314;28;20397;-68
2022/03/12 01:43:43;;;;;;;5.50;2.30;;;3.00;48.10;;;;;;5079522;28;20032;-68
2022/03/12 01:46:11;;;;;;;5.57;1.98;;;2.90;48.00;;;;;;5079319;28;20052;-68
2022/03/12 01:48:50;;;;;;;6.80;2.40;;;2.90;48.20;;;;;;5079363;28;20041;-68
2022/03/12 01:51:17;;;;;;;5.80;2.47;;;2.90;48.30;;;;;;5080461;28;20028;-68
2022/03/12 01:53:45;;;;;;;4.97;2.22;;;2.90;48.30;;;;;;5063253;28;20324;-68
2022/03/12 01:56:12;;;;;;;6.28;2.33;;;2.80;48.10;;;;;;5080513;28;20095;-68
2022/03/12 01:58:50;;;;;;;6.70;2.40;;;2.80;48.80;;;;;;5080200;28;20035;-68
2022/03/12 02:01:19;;;;;;;6.97;2.38;;;2.80;48.60;;;;;;5063168;28;20071;-68
2022/03/12 02:03:48;;;;;;;7.05;2.38;;;2.70;48.50;;;;;;5061043;28;20424;-68
2022/03/12 02:06:19;;;;;;;6.80;2.67;;;2.70;48.90;;;;;;5080772;28;20480;-68
2022/03/12 02:08:49;;;;;;;8.43;2.60;;;2.60;49.00;;;;;;5079851;28;20029;-68
2022/03/12 02:11:30;;;;;;;8.05;2.78;;;2.60;48.90;;;;;;5079189;28;20347;-68
2022/03/12 02:14:03;;;;;;;6.05;2.65;;;2.60;49.00;;;;;;5079558;28;20209;-68
2022/03/12 02:16:31;;;;;;;7.05;2.45;;;2.50;49.00;;;;;;5078799;28;20025;-68
2022/03/12 02:18:59;;;;;;;4.25;2.05;;;2.50;49.30;;;;;;5078812;28;20058;-68
2022/03/12 02:21:40;;;;;;;8.13;2.38;;;2.50;48.50;;;;;;5079192;28;20027;-68
2022/03/12 02:24:15;;;;;;;6.25;2.30;;;2.50;48.80;;;;;;5078839;28;20024;-68
2022/03/12 02:26:44;;;;;;;8.55;3.00;;;2.50;48.90;;;;;;5061055;28;20032;-68
2022/03/12 02:29:18;;;;;;;6.68;2.67;;;2.40;49.00;;;;;;5078905;28;20095;-68
2022/03/12 02:31:50;;;;;;;4.47;2.28;;;2.40;48.90;;;;;;5079567;28;20052;-68
2022/03/12 02:34:23;;;;;;;8.18;2.85;;;2.40;49.60;;;;;;5080060;28;20463;-68
2022/03/12 02:36:53;;;;;;;5.30;2.30;;;2.30;48.90;;;;;;5079468;28;20027;-68
2022/03/12 02:39:21;;;;;;;7.60;2.72;;;2.30;48.50;;;;;;5079422;28;20032;-68
2022/03/12 02:41:49;;;;;;;5.40;2.13;;;2.40;48.20;;;;;;5079882;28;20024;-68
2022/03/12 02:44:18;;;;;;;6.40;2.08;;;2.40;48.00;;;;;;5079890;28;20031;-68
2022/03/12 02:47:13;;;;;;;5.93;2.33;;;2.40;48.20;;;;;;5061694;28;20024;-68
2022/03/12 02:49:48;;;;;;;6.85;2.28;;;2.40;48.30;;;;;;5079748;28;20313;-68
2022/03/12 02:52:17;;;;;;;3.85;2.08;;;2.40;48.10;;;;;;5078806;28;20020;-68
2022/03/12 02:54:44;;;;;;;4.07;1.90;;;2.50;48.20;;;;;;5078191;28;20031;-68
2022/03/12 02:57:12;;;;;;;7.53;2.40;;;2.50;48.50;;;;;;5078365;28;20036;-68
2022/03/12 02:59:45;;;;;;;5.55;2.60;;;2.50;48.70;;;;;;5060345;28;20024;-68
2022/03/12 03:02:13;;;;;;;5.95;2.63;;;2.40;49.10;;;;;;5078007;28;20028;-68
2022/03/12 03:04:41;;;;;;;8.05;1.90;;;2.40;49.40;;;;;;5077964;28;20027;-68
2022/03/12 03:07:10;;;;;;;5.53;2.40;;;2.40;48.70;;;;;;5078712;28;20024;-68
2022/03/12 03:09:38;;;;;;;5.63;2.28;;;2.40;48.20;;;;;;5077935;28;20039;-68
2022/03/12 03:12:09;;;;;;;6.35;2.50;;;2.40;48.80;;;;;;5060136;28;20020;-68
2022/03/12 03:14:41;;;;;;;5.68;2.00;;;2.40;48.70;;;;;;5078428;28;20452;-68
2022/03/12 03:17:12;;;;;;;4.85;1.98;;;2.30;49.00;;;;;;5079003;28;20028;-68
2022/03/12 03:19:40;;;;;;;5.93;1.95;;;2.30;48.90;;;;;;5078581;28;20121;-68
2022/03/12 03:22:08;;;;;;;9.27;2.42;;;2.20;48.90;;;;;;5060810;28;20034;-68
2022/03/12 03:24:35;;;;;;;7.50;2.10;;;2.20;48.70;;;;;;5078571;28;20028;-68
2022/03/12 03:27:04;;;;;;;4.35;1.92;;;2.20;48.50;;;;;;5060896;28;20057;-68
2022/03/12 03:29:33;;;;;;;6.07;2.20;;;2.20;48.70;;;;;;5078440;28;20024;-68
2022/03/12 03:32:02;;;;;;;5.32;1.85;;;2.20;48.90;;;;;;5078188;28;20024;-68
2022/03/12 03:34:33;;;;;;;5.15;1.70;;;2.10;48.70;;;;;;5077870;28;20110;-68
2022/03/12 03:37:00;;;;;;;5.03;2.45;;;2.10;48.20;;;;;;5059700;28;20020;-68
2022/03/12 03:39:28;;;;;;;4.53;2.17;;;2.20;48.30;;;;;;5077314;28;20033;-68
2022/03/12 03:41:56;;;;;;;5.88;2.00;;;2.20;48.20;;;;;;5059580;28;20431;-68
2022/03/12 03:44:28;;;;;;;5.70;2.30;;;2.20;47.70;;;;;;5077767;28;20024;-68
2022/03/12 03:46:57;;;;;;;4.93;1.95;;;2.30;47.60;;;;;;5077182;28;20032;-68
2022/03/12 03:49:25;;;;;;;4.45;1.90;;;2.30;47.80;;;;;;5077688;28;20028;-68
2022/03/12 03:51:53;;;;;;;5.70;1.92;;;2.30;47.80;;;;;;5077055;28;20078;-68
2022/03/12 03:54:20;;;;;;;5.50;2.55;;;2.30;47.60;;;;;;5077067;28;20027;-68
2022/03/12 03:56:47;;;;;;;7.50;2.35;;;2.30;47.40;;;;;;5059929;28;20548;-68
2022/03/12 03:59:15;;;;;;;4.22;2.10;;;2.30;47.40;;;;;;5060348;28;20420;-68
2022/03/12 04:01:42;;;;;;;4.65;2.08;;;2.40;47.20;;;;;;5060212;28;20020;-68
2022/03/12 04:04:13;;;;;;;4.28;1.85;;;2.40;47.30;;;;;;5077815;28;20017;-68
2022/03/12 04:06:42;;;;;;;5.70;1.98;;;2.30;47.10;;;;;;5060099;28;20032;-68
2022/03/12 04:09:10;;;;;;;5.20;1.95;;;2.40;47.10;;;;;;5077741;28;20029;-68
2022/03/12 04:11:38;;;;;;;5.53;2.20;;;2.40;46.80;;;;;;5077966;28;20379;-68
2022/03/12 04:14:06;;;;;;;4.47;2.15;;;2.40;47.00;;;;;;5078232;28;20113;-68
2022/03/12 04:16:33;;;;;;;8.82;1.83;;;2.40;47.30;;;;;;5077534;28;20013;-68
2022/03/12 04:19:03;;;;;;;5.60;1.85;;;2.40;47.50;;;;;;5076599;28;20389;-68
2022/03/12 04:21:31;;;;;;;6.60;2.13;;;2.40;47.60;;;;;;5077101;28;20017;-68
2022/03/12 04:23:58;;;;;;;4.88;2.05;;;2.40;47.70;;;;;;5076592;28;20032;-68
2022/03/12 04:26:26;;;;;;;6.18;2.20;;;2.30;47.90;;;;;;5076048;28;20032;-68
2022/03/12 04:28:53;;;;;;;4.82;2.13;;;2.30;48.00;;;;;;5058994;28;20313;-68
2022/03/12 04:31:21;;;;;;;5.85;2.30;;;2.30;48.40;;;;;;5076580;28;20039;-68
2022/03/12 04:33:48;;;;;;;4.18;2.10;;;2.20;48.20;;;;;;5076636;28;20371;-68
2022/03/12 04:36:16;;;;;;;5.97;2.55;;;2.20;48.30;;;;;;5076503;28;20016;-68
2022/03/12 04:38:43;;;;;;;5.82;2.17;;;2.20;47.90;;;;;;5059070;28;20095;-68
2022/03/12 04:41:13;;;;;;;9.65;2.70;;;2.30;48.10;;;;;;5077821;28;20017;-68
2022/03/12 04:43:42;;;;;;;11.25;3.92;;;2.30;47.90;;;;;;5077594;28;20025;-68
2022/03/12 04:46:09;;;;;;;6.55;2.65;;;2.30;47.60;;;;;;5077713;28;20024;-68
2022/03/12 04:48:37;;;;;;;6.40;2.55;;;2.40;47.50;;;;;;5059718;28;20091;-68
2022/03/12 04:51:05;;;;;;;8.30;2.65;;;2.40;47.40;;;;;;5059641;28;20024;-68
2022/03/12 04:53:32;;;;;;;3.58;1.70;;;2.40;47.10;;;;;;5077739;28;20032;-68
2022/03/12 04:56:00;;;;;;;4.70;2.15;;;2.50;47.10;;;;;;5077776;28;20055;-68
2022/03/12 04:58:28;;;;;;;5.70;2.38;;;2.60;47.20;;;;;;5059241;28;20025;-68
2022/03/12 05:00:55;;;;;;;5.85;2.00;;;2.60;46.70;;;;;;5076417;28;20127;-68
2022/03/12 05:03:25;;;;;;;7.30;1.77;;;2.60;46.90;;;;;;5076275;28;20020;-68
2022/03/12 05:05:53;;;;;;;7.68;2.72;;;2.70;46.80;;;;;;5076778;28;20175;-68
2022/03/12 05:08:24;;;;;;;5.63;2.42;;;2.70;46.90;;;;;;5076344;28;20078;-68
2022/03/12 05:10:54;;;;;;;4.60;1.88;;;2.80;46.90;;;;;;5076759;28;20017;-68
2022/03/12 05:13:23;;;;;;;6.03;2.78;;;2.70;46.90;;;;;;5075984;28;20364;-68
2022/03/12 05:16:01;;;;;;;5.35;2.40;;;2.70;46.70;;;;;;5076566;28;20070;-68
2022/03/12 05:18:30;;;;;;;5.78;2.00;;;2.70;46.70;;;;;;5075977;28;20049;-68
2022/03/12 05:20:58;;;;;;;5.68;2.33;;;2.70;46.80;;;;;;5077162;28;20470;-68
2022/03/12 05:23:26;;;;;;;6.25;2.63;;;2.70;46.60;;;;;;5059161;28;20033;-68
2022/03/12 05:25:53;;;;;;;6.00;2.47;;;2.70;46.80;;;;;;5077364;28;20127;-68
2022/03/12 05:28:31;;;;;;;5.03;2.25;;;2.80;46.60;;;;;;5076902;28;20293;-68
2022/03/12 05:31:04;;;;;;;5.75;2.15;;;2.80;46.70;;;;;;5076778;28;20039;-68
2022/03/12 05:33:34;;;;;;;5.22;2.15;;;2.80;46.90;;;;;;5076623;28;20127;-68
2022/03/12 05:36:03;;;;;;;4.20;1.88;;;2.80;46.80;;;;;;5076885;28;20412;-68
2022/03/12 05:38:34;;;;;;;7.43;2.30;;;2.80;46.70;;;;;;5078274;28;20052;-68
2022/03/12 05:41:12;;;;;;;11.15;2.72;;;2.80;46.70;;;;;;5079422;28;20028;-68
2022/03/12 05:43:44;;;;;;;5.28;2.28;;;2.80;47.10;;;;;;5079523;28;20021;-68
2022/03/12 05:46:16;;;;;;;10.05;2.50;;;2.80;46.70;;;;;;5079842;28;20382;-68
2022/03/12 05:48:48;;;;;;;4.55;2.45;;;2.80;47.00;;;;;;5079410;28;20025;-68
2022/03/12 05:51:15;;;;;;;4.72;2.53;;;2.80;46.90;;;;;;5079660;28;20021;-68
2022/03/12 05:53:44;;;;;;;5.63;2.30;;;2.80;46.60;;;;;;5079295;28;20025;-68
2022/03/12 05:56:11;;;;;;;5.05;2.47;;;2.80;46.60;;;;;;5079430;28;20428;-68
2022/03/12 05:58:39;;;;;;;4.53;1.90;;;2.90;46.70;;;;;;5045029;28;20032;-68
2022/03/12 06:01:08;;;;;;;7.05;2.65;;;2.80;46.50;;;;;;5079763;28;20016;-68
2022/03/12 06:03:35;;;;;;;6.20;2.20;;;2.90;47.00;;;;;;5080069;28;20028;-68
2022/03/12 06:06:03;;;;;;;4.95;2.25;;;2.80;47.10;;;;;;5080149;28;20055;-68
2022/03/12 06:08:33;;;;;;;5.75;2.17;;;2.80;46.70;;;;;;5079952;28;20421;-69
2022/03/12 06:11:01;;;;;;;9.90;2.20;;;2.80;46.50;;;;;;5080534;28;20033;-69
2022/03/12 06:13:29;;;;;;;5.85;2.15;;;2.90;46.60;;;;;;5062021;28;20066;-69
2022/03/12 06:16:02;;;;;;;4.80;2.10;;;2.90;46.80;;;;;;5080391;28;20016;-71
2022/03/12 06:18:36;;;;;;;5.53;2.35;;;2.90;47.60;;;;;;5079528;28;20440;-68
2022/03/12 06:21:06;;;;;;;6.63;2.28;;;2.90;46.90;;;;;;5080395;28;20032;-69
2022/03/12 06:23:34;;;;;;;7.07;2.20;;;2.80;47.30;;;;;;5061017;28;20032;-69
2022/03/12 06:26:09;;;;;;;7.03;2.35;;;2.80;47.60;;;;;;5060976;28;20052;-69
2022/03/12 06:28:38;;;;;;;6.35;2.55;;;2.80;47.30;;;;;;5078375;28;20029;-69
2022/03/12 06:31:06;;;;;;;10.80;3.65;;;2.90;47.40;;;;;;5079138;28;20101;-74
2022/03/12 06:33:34;;;;;;;11.10;4.03;;;2.90;47.40;;;;;;5078554;28;20035;-73
2022/03/12 06:36:02;;;;;;;7.65;3.20;;;2.90;47.20;;;;;;5078612;28;20024;-73
2022/03/12 06:38:31;;;;;;;4.93;2.67;;;2.90;47.40;;;;;;5079099;28;20017;-73
2022/03/12 06:40:59;;;;;;;6.15;3.20;;;3.00;47.40;;;;;;5079227;28;20313;-72
2022/03/12 06:43:28;;;;;;;6.68;2.72;;;3.00;47.80;;;;;;5078732;28;20103;-74
2022/03/12 06:46:01;;;;;;;6.55;2.92;;;3.00;47.30;;;;;;5079613;28;20321;-74
2022/03/12 06:48:31;;;;;;;5.53;2.40;;;3.10;46.80;;;;;;5079154;28;20037;-74
2022/03/12 06:50:59;;;;;;;6.03;2.65;;;3.10;46.90;;;;;;5078910;28;20029;-74
2022/03/12 06:53:26;;;;;;;5.05;2.17;;;3.20;47.20;;;;;;5061255;28;20024;-79
2022/03/12 06:55:54;;;;;;;5.70;2.38;;;3.20;46.80;;;;;;5061603;28;20021;-77
2022/03/12 06:58:23;;;;;;;5.45;2.33;;;3.30;47.00;;;;;;5059742;28;20024;-78
2022/03/12 07:00:51;;;;;;;7.18;1.83;;;3.30;47.00;;;;;;5061832;28;20021;-81
2022/03/12 07:03:18;;;;;;;7.45;2.50;;;3.40;46.80;;;;;;5078865;28;20299;-81
2022/03/12 07:05:46;;;;;;;6.95;3.25;;;3.40;46.50;;;;;;5078077;28;20150;-80
2022/03/12 07:08:13;;;;;;;4.60;2.22;;;3.50;46.60;;;;;;5077967;28;20016;-80
2022/03/12 07:10:40;;;;;;;5.53;2.88;;;3.50;46.60;;;;;;5078096;28;20032;-80
2022/03/12 07:13:09;;;;;;;6.15;2.90;;;3.60;46.30;;;;;;5077763;28;20024;-76
2022/03/12 07:15:37;;;;;;;4.82;2.47;;;3.70;46.80;;;;;;5077773;28;20021;-84
2022/03/12 07:18:04;;;;;;;5.68;2.28;;;3.60;46.30;;;;;;5077633;28;20324;-78
2022/03/12 07:20:32;;;;;;;4.65;2.45;;;3.70;46.60;;;;;;5078155;28;20020;-73
2022/03/12 07:23:00;;;;;;;4.20;1.92;;;3.80;46.60;;;;;;5059866;28;20036;-73
2022/03/12 07:25:28;;;;;;;5.45;2.47;;;3.80;47.10;;;;;;5078287;28;20059;-73
2022/03/12 07:27:56;;;;;;;6.45;2.50;;;3.90;46.60;;;;;;5060692;28;20058;-68
2022/03/12 07:30:23;;;;;;;6.05;2.80;;;3.90;46.70;;;;;;5078543;28;20436;-68
2022/03/12 07:32:50;;;;;;;5.30;2.95;;;4.00;47.50;;;;;;5060646;28;20162;-69
2022/03/12 07:35:19;;;;;;;4.07;2.20;;;4.10;46.20;;;;;;5078439;28;20027;-69
2022/03/12 07:37:49;;;;;;;6.78;2.85;;;4.10;46.70;;;;;;5078290;28;20026;-69
2022/03/12 07:40:17;;;;;;;4.95;2.50;;;4.20;46.50;;;;;;5078150;28;20320;-69
2022/03/12 07:42:46;;;;;;;6.40;2.75;;;4.20;46.50;;;;;;5078208;28;20029;-70
2022/03/12 07:45:14;;;;;;;4.20;2.30;;;4.30;45.90;;;;;;5078465;28;20447;-69
2022/03/12 07:47:42;;;;;;;4.60;2.03;;;4.30;46.10;;;;;;5077171;28;20056;-72
2022/03/12 07:50:11;;;;;;;5.40;1.98;;;4.30;46.10;;;;;;5077053;28;20025;-70
2022/03/12 07:52:39;;;;;;;8.00;3.25;;;4.40;46.80;;;;;;5077176;28;20082;-70
2022/03/12 07:55:09;;;;;;;7.00;3.35;;;4.40;46.40;;;;;;5077341;28;20021;-71
2022/03/12 07:57:38;;;;;;;6.53;2.30;;;4.50;46.60;;;;;;5076966;28;20028;-74
2022/03/12 08:00:08;;;;;;;4.97;2.47;;;4.50;46.90;;;;;;5059496;28;20028;-71
2022/03/12 08:02:36;;;;;;;5.65;2.60;;;4.60;46.50;;;;;;5077603;28;20038;-72
2022/03/12 08:05:05;;;;;;;6.45;2.90;;;4.60;46.40;;;;;;5059137;28;20025;-72
2022/03/12 08:07:33;;;;;;;7.38;2.95;;;4.70;46.00;;;;;;5076898;28;20021;-71
2022/03/12 08:10:00;;;;;;;6.53;2.80;;;4.70;46.60;;;;;;5078276;28;20070;-71
2022/03/12 08:12:30;;;;;;;7.35;2.83;;;4.80;46.60;;;;;;5078370;28;20024;-71
2022/03/12 08:14:58;;;;;;;6.97;3.30;;;4.80;46.80;;;;;;5078275;28;20051;-71
2022/03/12 08:17:26;;;;;;;6.57;3.17;;;4.90;46.80;;;;;;5077665;28;20020;-70
2022/03/12 08:19:54;;;;;;;6.93;3.17;;;4.90;46.80;;;;;;5077504;28;20053;-70
2022/03/12 08:22:22;;;;;;;6.47;2.58;;;5.00;46.50;;;;;;5077741;28;20016;-72
2022/03/12 08:24:49;;;;;;;6.38;2.58;;;5.10;46.70;;;;;;5077557;28;20059;-70
2022/03/12 08:27:18;;;;;;;6.05;2.90;;;5.20;46.60;;;;;;5077567;28;20029;-70
2022/03/12 08:29:45;;;;;;;7.35;2.80;;;5.30;46.50;;;;;;5058820;28;20025;-70
2022/03/12 08:32:12;;;;;;;9.77;4.15;;;5.30;46.60;;;;;;5077043;28;20021;-70
2022/03/12 08:34:41;;;;;;;7.10;3.35;;;5.30;46.60;;;;;;5076552;28;20021;-71
2022/03/12 08:37:09;;;;;;;10.05;3.60;;;5.40;46.60;;;;;;5077030;28;20393;-70
2022/03/12 08:39:38;;;;;;;7.88;3.17;;;5.50;46.40;;;;;;5077021;28;20024;-71
2022/03/12 08:42:06;;;;;;;6.25;3.33;;;5.60;46.40;;;;;;5076536;28;20308;-71
2022/03/12 08:44:33;;;;;;;10.88;3.53;;;5.60;46.50;;;;;;5076698;28;20056;-71
2022/03/12 08:47:01;;;;;;;12.52;3.35;;;5.70;46.70;;;;;;5076236;28;20025;-71
2022/03/12 08:49:28;;;;;;;9.55;4.15;;;5.80;46.40;;;;;;5058602;28;20060;-71
2022/03/12 08:51:56;;;;;;;6.65;3.42;;;5.80;46.40;;;;;;5077574;28;20323;-71
2022/03/12 08:54:24;;;;;;;11.07;2.85;;;5.90;46.40;;;;;;5059328;28;20020;-71
2022/03/12 08:56:52;;;;;;;9.35;3.38;;;6.00;46.60;;;;;;5059401;28;20016;-71
2022/03/12 08:59:19;;;;;;;6.25;2.75;;;6.00;46.50;;;;;;5077120;28;20040;-71
2022/03/12 09:01:47;;;;;;;4.80;2.42;;;6.10;46.80;;;;;;5059429;28;20365;-71
2022/03/12 09:04:17;;;;;;;11.95;4.40;;;6.20;46.50;;;;;;5077211;28;20492;-71
2022/03/12 09:06:46;;;;;;;8.00;3.55;;;6.20;46.40;;;;;;5077222;28;20017;-71
2022/03/12 09:09:13;;;;;;;5.03;2.75;;;6.30;46.40;;;;;;5077697;28;20027;-72
2022/03/12 09:11:41;;;;;;;7.40;3.22;;;6.40;46.50;;;;;;5076678;28;20051;-71
2022/03/12 09:14:08;;;;;;;5.65;2.45;;;6.50;46.30;;;;;;5060909;28;20060;-72
2022/03/12 09:16:36;;;;;;;6.35;3.22;;;6.60;46.10;;;;;;5080115;28;20401;-71
2022/03/12 09:19:05;;;;;;;9.43;3.30;;;6.70;46.50;;;;;;5080213;28;20048;-71
2022/03/12 09:21:33;;;;;;;10.18;3.75;;;6.70;47.20;;;;;;5080975;28;20282;-71
2022/03/12 09:24:03;;;;;;;8.18;3.80;;;6.80;47.30;;;;;;5080503;28;20074;-71
2022/03/12 09:26:31;;;;;;;7.55;3.55;;;6.70;47.30;;;;;;5079705;28;20025;-72
2022/03/12 09:28:58;;;;;;;10.05;4.13;;;6.80;47.20;;;;;;5079864;28;20104;-70
2022/03/12 09:31:26;;;;;;;7.72;3.72;;;6.80;47.30;;;;;;5080361;28;20021;-69
2022/03/12 09:33:54;;;;;;;10.18;3.60;;;6.80;47.60;;;;;;5080103;28;20069;-69
2022/03/12 09:36:22;;;;;;;8.13;3.72;;;6.90;47.80;;;;;;5081080;28;20281;-69
2022/03/12 09:38:50;;;;;;;8.02;4.13;;;7.00;48.10;;;;;;5080805;28;20315;-69
2022/03/12 09:41:18;;;;;;;11.02;3.25;;;7.00;48.10;;;;;;5081214;28;20016;-69
2022/03/12 09:43:45;;;;;;;10.25;4.40;;;7.10;47.40;;;;;;5080528;28;20127;-68
2022/03/12 09:46:12;;;;;;;9.93;4.35;;;7.20;47.80;;;;;;5080377;28;20025;-69
2022/03/12 09:48:40;;;;;;;9.30;4.80;;;7.30;48.00;;;;;;5080383;28;20325;-70
2022/03/12 09:51:08;;;;;;;10.65;3.97;;;7.30;48.20;;;;;;5080243;28;20024;-70
2022/03/12 09:53:35;;;;;;;9.05;4.15;;;7.40;48.20;;;;;;5080213;28;20035;-70
2022/03/12 09:56:03;;;;;;;12.90;5.03;;;7.50;48.10;;;;;;5079207;28;20344;-70
2022/03/12 09:58:31;;;;;;;13.13;4.60;;;7.60;48.10;;;;;;5079443;28;20024;-70
2022/03/12 10:01:00;;;;;;;9.75;4.43;;;7.70;48.10;;;;;;5079085;28;20025;-70
2022/03/12 10:03:28;;;;;;;10.40;4.70;;;7.80;47.90;;;;;;5079009;28;20028;-70
2022/03/12 10:05:56;;;;;;;19.48;6.28;;;7.90;47.90;;;;;;5079169;28;20048;-70
2022/03/12 10:08:23;;;;;;;18.95;6.22;;;7.90;48.50;;;;;;5079673;28;20024;-70
2022/03/12 10:10:51;;;;;;;16.38;6.60;;;8.00;48.80;;;;;;5079017;28;20495;-69
2022/03/12 10:13:18;;;;;;;14.30;5.43;;;8.10;48.60;;;;;;5061106;28;20105;-70
2022/03/12 10:15:46;;;;;;;9.10;5.38;;;8.20;48.90;;;;;;5079437;28;20017;-70
2022/03/12 10:18:15;;;;;;;10.23;5.07;;;8.20;49.20;;;;;;5080329;28;20099;-70
2022/03/12 10:20:42;;;;;;;8.75;3.97;;;8.30;49.40;;;;;;5079795;28;20020;-70
2022/03/12 10:23:10;;;;;;;8.05;4.30;;;8.30;49.60;;;;;;5079640;28;20113;-70
2022/03/12 10:25:39;;;;;;;11.05;4.18;;;8.40;49.30;;;;;;5078644;28;20089;-71
2022/03/12 10:28:06;;;;;;;11.48;4.90;;;8.50;50.00;;;;;;5079654;28;20028;-71
2022/03/12 10:30:37;;;;;;;12.63;5.30;;;8.50;49.90;;;;;;5062148;28;20021;-70
2022/03/12 10:33:06;;;;;;;11.05;4.82;;;8.60;49.80;;;;;;5080038;28;20025;-70
2022/03/12 10:35:38;;;;;;;15.07;4.63;;;8.70;50.00;;;;;;5080016;28;20021;-71
2022/03/12 10:38:14;;;;;;;9.18;4.95;;;8.80;50.20;;;;;;5060794;28;20042;-71
2022/03/12 10:40:41;;;;;;;9.50;4.73;;;8.90;50.10;;;;;;5078622;28;20036;-71
2022/03/12 10:43:16;;;;;;;8.65;4.47;;;8.90;50.30;;;;;;5079022;28;20039;-71
2022/03/12 10:45:56;;;;;;;10.02;4.47;;;9.00;50.30;;;;;;5060725;28;20028;-71
2022/03/12 10:48:25;;;;;;;10.80;4.47;;;9.10;50.70;;;;;;5078340;28;20024;-70
2022/03/12 10:50:53;;;;;;;9.55;4.75;;;9.20;50.70;;;;;;5078880;28;20117;-71
2022/03/12 10:53:22;;;;;;;9.88;4.47;;;9.20;50.70;;;;;;5078681;28;20046;-71
2022/03/12 10:55:51;;;;;;;11.88;4.95;;;9.30;50.80;;;;;;5078365;28;20470;-71
2022/03/12 10:58:26;;;;;;;9.02;5.18;;;9.40;50.80;;;;;;5078826;28;20036;-71
2022/03/12 11:01:02;;;;;;;13.60;5.68;;;9.50;51.20;;;;;;5079057;28;20099;-71
2022/03/12 11:03:35;;;;;;;11.52;5.38;;;9.50;51.50;;;;;;5079297;28;20025;-71
2022/03/12 11:06:04;;;;;;;12.35;5.60;;;9.60;51.40;;;;;;5079610;28;20082;-71
2022/03/12 11:08:33;;;;;;;10.32;4.97;;;9.60;51.20;;;;;;5061161;28;20028;-70
2022/03/12 11:11:11;;;;;;;10.45;4.25;;;9.70;51.50;;;;;;5078941;28;20107;-71
2022/03/12 11:13:40;;;;;;;12.55;4.63;;;9.80;51.00;;;;;;5078549;28;20056;-71
2022/03/12 11:16:32;;;;;;;10.13;4.70;;;9.80;51.40;;;;;;5079305;28;20020;-71
2022/03/12 11:19:11;;;;;;;10.10;4.68;;;9.70;51.30;;;;;;5078584;28;20113;-71
2022/03/12 11:21:53;;;;;;;11.15;4.75;;;9.80;51.50;;;;;;5077724;28;20032;-71
2022/03/12 11:24:49;;;;;;;12.57;5.75;;;9.80;51.60;;;;;;5059877;28;20498;-71
2022/03/12 11:27:29;;;;;;;8.82;5.00;;;10.00;51.70;;;;;;5077511;28;20017;-71
2022/03/12 11:30:02;;;;;;;11.73;5.25;;;10.00;51.10;;;;;;5078105;28;20051;-71
2022/03/12 11:32:35;;;;;;;10.30;5.13;;;10.10;51.20;;;;;;5077476;28;20055;-71
2022/03/12 11:35:10;;;;;;;8.68;4.75;;;10.20;51.10;;;;;;5077729;28;20020;-71
2022/03/12 11:37:41;;;;;;;12.60;4.85;;;10.30;51.40;;;;;;5077308;28;20085;-71
2022/03/12 11:40:18;;;;;;;8.75;5.45;;;10.30;51.50;;;;;;5077563;28;20020;-70
2022/03/12 11:42:48;;;;;;;11.23;5.05;;;10.40;51.90;;;;;;5078339;28;20464;-70
2022/03/12 11:45:17;;;;;;;10.38;5.10;;;10.50;51.90;;;;;;5078107;28;20158;-71
2022/03/12 11:47:46;;;;;;;10.70;5.38;;;10.70;51.40;;;;;;5078064;28;20021;-69
2022/03/12 11:50:22;;;;;;;8.77;4.70;;;10.70;51.20;;;;;;5060285;28;20036;-69
2022/03/12 11:52:50;;;;;;;8.52;4.60;;;10.80;51.90;;;;;;5078236;28;20404;-69
2022/03/12 11:55:22;;;;;;;12.70;4.30;;;10.90;52.20;;;;;;5060189;28;20024;-69
2022/03/12 11:57:51;;;;;;;9.30;4.32;;;11.00;51.50;;;;;;5077919;28;20384;-67
2022/03/12 12:00:29;;;;;;;8.30;4.10;;;11.20;51.70;;;;;;5078567;28;20035;-68
2022/03/12 12:02:58;;;;;;;9.10;4.65;;;11.30;51.40;;;;;;5077179;28;20371;-67
2022/03/12 12:05:29;;;;;;;12.73;5.55;;;11.40;51.80;;;;;;5059140;28;20021;-67
2022/03/12 12:07:57;;;;;;;14.38;4.78;;;11.40;51.80;;;;;;5077122;28;20021;-70
2022/03/12 12:10:33;;;;;;;9.45;4.82;;;11.50;51.80;;;;;;5077357;28;20029;-71
2022/03/12 12:13:00;;;;;;;;;;;11.60;52.80;;;;;;5077723;28;20028;-71
2022/03/12 12:15:34;;;;;;;17.45;5.97;;;11.70;50.20;;;;;;5077310;28;20338;-70
2022/03/12 12:18:05;;;;;;;8.80;5.28;;;11.70;51.70;;;;;;5077479;28;20027;-68
2022/03/12 12:20:33;;;;;;;10.18;4.85;;;11.80;51.70;;;;;;5096002;28;20048;-68
2022/03/12 12:23:03;;;;;;;9.00;5.20;;;11.80;52.60;;;;;;5096107;28;20051;-68
2022/03/12 12:25:38;;;;;;;11.07;5.30;;;11.90;51.20;;;;;;5097850;28;20420;-68
2022/03/12 12:28:16;;;;;;;12.40;5.05;;;11.90;50.40;;;;;;5096712;28;20032;-68
2022/03/12 12:30:46;;;;;;;10.57;5.85;;;11.90;51.50;;;;;;5097885;28;20024;-69
2022/03/12 12:33:29;;;;;;;10.38;5.53;;;11.90;50.50;;;;;;5098183;28;20115;-69
2022/03/12 12:36:13;;;;;;;11.30;5.43;;;11.80;50.80;;;;;;5098249;28;20485;-69
2022/03/12 12:39:01;;;;;;;9.25;5.35;;;11.80;51.20;;;;;;5097943;28;20027;-68
2022/03/12 12:42:05;;;;;;;12.00;6.00;;;11.90;51.30;;;;;;5097678;28;20020;-69
2022/03/12 12:44:46;;;;;;;10.32;5.57;;;12.10;52.00;;;;;;5034894;28;20113;-70
2022/03/12 12:47:20;;;;;;;9.85;5.07;;;12.20;52.30;;;;;;5088105;28;20335;-70
2022/03/12 12:49:56;;;;;;;11.70;6.07;;;12.30;52.60;;;;;;5096413;28;20031;-71
2022/03/12 12:52:26;;;;;;;10.48;5.18;;;12.40;51.40;;;;;;5095621;28;20324;-70
2022/03/12 12:54:59;;;;;;;11.48;6.00;;;12.50;51.20;;;;;;5096499;28;20028;-71
2022/03/12 12:57:40;;;;;;;14.95;8.35;;;12.50;50.80;;;;;;5097050;28;20043;-70
2022/03/12 13:00:32;;;;;;;11.27;5.60;;;12.50;50.40;;;;;;5097035;28;20031;-68
2022/03/12 13:03:04;;;;;;;11.00;6.00;;;12.60;51.70;;;;;;5096298;28;20028;-69
2022/03/12 13:05:58;;;;;;;11.98;5.47;;;12.70;51.00;;;;;;5096918;28;20026;-68
2022/03/12 13:08:43;;;;;;;12.10;5.75;;;12.60;50.90;;;;;;5097506;28;20024;-68